首页
METAR-TAF:

METAR-TAF

机场 :

林丁平德林国际机场

拿骚, 巴哈马

纬度: 25-03N, 经度: 077-28W, 海拔: 3米

当前天气观测

该预报发布于43分钟前的17:00 UTC
风速5节,风向西北,在西之间变化
温度 26°C
湿度 94%
气压 1022 hPa
能見度: 4000
散云层高于1500英尺, 积雨云.
阴天层高于2500英尺
雷暴, 大雨

METAR: MYNN 081700Z 31005KT 280V360 4000 +TSRA SCT015CB OVC025 26/25 A3017 CB OVHD

时间: 13:43 (17:43 UTC)

预报

该预报发布于43分钟前的17:00 UTC
预报有效从08日的 18点(UTC)到 09日的 18点(UTC)
风速4节,风向
能见度10公里或以上
散云层高于2500英尺
散云层高于6000英尺

TAF: MYNN 081700Z 0818/0918 09004KT 9999 SCT025 SCT060

超过4000个机场的气象观测和天气预报(METAR&TAF报告)。

可查询的气象台以黄色和红色小点在地图上表示。

将鼠标移到小点上方,可查看气象台名称。

然后点击查看天气观测和预报。

如需切换地图:点击带黑十字的绿色按钮放大地图;点击带横线的绿色按钮缩小地图;或者点击绿色箭头查看邻近地区的地图。


METAR-TAF: